Terminal Aerodrome Forecast
Issued by NWS Sioux Falls, SD

Home | Current Version | Previous Version | Text Only | Print | Product List | Glossary On
Versions: 1 2 3 4 5 6 7 8 9 10 11 12 13 14 15 16 17 18 19 20 21 22 23 24 25 26 27 28
220
FTUS43 KFSD 090533
TAFSUX
TAF
KSUX 090533Z 0906/1006 32013G18KT P6SM SCT250
     FM091000 33010G16KT P6SM BKN250
     FM091400 33013KT P6SM BKN018
     FM091700 33012KT P6SM SCT250
     FM092200 27007KT P6SM FEW250
     FM100000 24004KT P6SM FEW250=

USA.gov is the U.S. government's official web portal to all federal, state and local government web resources and services.